Time;durP1;ratioP1;P1;durP2;ratioP2;P2;SDS_P1;SDS_P2;PMS_P1;PMS_P2;Temp;Humidity;BMP_temperature;BMP_pressure;BME280_temperature;BME280_humidity;BME280_pressure;Samples;Min_cycle;Max_cycle;Signal;HPM_P1;HPM_P2
2024/02/04 00:00:07;;;;;;;8.30;5.80;;;;;;;-128.00;-1.00;-1.00;76746;1289;4010855;-69
2024/02/04 00:02:40;;;;;;;6.00;4.40;;;;;;;-128.00;-1.00;-1.00;76281;1292;4018212;-66
2024/02/04 00:05:07;;;;;;;5.70;3.70;;;;;;;-128.00;-1.00;-1.00;76872;1290;4011815;-68
2024/02/04 00:07:34;;;;;;;4.60;3.70;;;;;;;-128.00;-1.00;-1.00;76797;1295;4011621;-70
2024/02/04 00:10:03;;;;;;;5.20;4.10;;;;;;;-128.00;-1.00;-1.00;76248;1293;4012074;-68
2024/02/04 00:12:30;;;;;;;6.70;5.00;;;;;;;-128.00;-1.00;-1.00;77066;1289;4011144;-70
2024/02/04 00:14:57;;;;;;;5.30;4.20;;;;;;;-128.00;-1.00;-1.00;76841;1289;4012262;-73
2024/02/04 00:17:29;;;;;;;5.30;4.50;;;;;;;-128.00;-1.00;-1.00;76313;1291;4012841;-70
2024/02/04 00:19:56;;;;;;;6.10;4.10;;;;;;;-128.00;-1.00;-1.00;76934;1289;4010478;-69
2024/02/04 00:22:25;;;;;;;5.50;3.90;;;;;;;-128.00;-1.00;-1.00;76403;1292;4012553;-68
2024/02/04 00:24:52;;;;;;;4.90;4.10;;;;;;;-128.00;-1.00;-1.00;76986;1296;4012155;-69
2024/02/04 00:27:18;;;;;;;4.70;3.40;;;;;;;-128.00;-1.00;-1.00;76931;1296;4012037;-69
2024/02/04 00:29:47;;;;;;;6.60;4.20;;;;;;;-128.00;-1.00;-1.00;76360;1292;4011931;-68
2024/02/04 00:32:14;;;;;;;7.20;4.90;;;;;;;-128.00;-1.00;-1.00;76969;1296;4011978;-68
2024/02/04 00:34:40;;;;;;;4.80;3.70;;;;;;;-128.00;-1.00;-1.00;76913;1295;4014023;-69
2024/02/04 00:37:09;;;;;;;6.30;3.70;;;;;;;-128.00;-1.00;-1.00;76195;1291;4012706;-68
2024/02/04 00:39:36;;;;;;;6.10;4.00;;;;;;;-128.00;-1.00;-1.00;76750;1295;4013755;-68
2024/02/04 00:42:03;;;;;;;4.10;3.20;;;;;;;-128.00;-1.00;-1.00;77048;1294;4011740;-66
2024/02/04 00:44:32;;;;;;;4.90;3.70;;;;;;;-128.00;-1.00;-1.00;76319;1290;4012877;-73
2024/02/04 00:47:00;;;;;;;5.80;4.60;;;;;;;-128.00;-1.00;-1.00;77043;1289;4010914;-69
2024/02/04 00:49:26;;;;;;;6.70;4.40;;;;;;;-128.00;-1.00;-1.00;76933;1292;4011971;-65
2024/02/04 00:51:55;;;;;;;5.40;4.00;;;;;;;-128.00;-1.00;-1.00;75983;1292;4012016;-65
2024/02/04 00:54:22;;;;;;;6.70;4.30;;;;;;;-128.00;-1.00;-1.00;76868;1291;4011856;-71
2024/02/04 00:56:48;;;;;;;8.20;4.90;;;;;;;-128.00;-1.00;-1.00;76820;1292;4011976;-69
2024/02/04 00:59:17;;;;;;;6.30;4.70;;;;;;;-128.00;-1.00;-1.00;76266;1295;4011379;-67
2024/02/04 01:01:44;;;;;;;6.00;3.80;;;;;;;-128.00;-1.00;-1.00;76864;1292;4011451;-67
2024/02/04 01:04:10;;;;;;;8.50;4.50;;;;;;;-128.00;-1.00;-1.00;76843;1292;4010906;-72
2024/02/04 01:06:39;;;;;;;8.50;4.70;;;;;;;-128.00;-1.00;-1.00;76213;1292;4011983;-68
2024/02/04 01:09:08;;;;;;;7.10;4.60;;;;;;;-128.00;-1.00;-1.00;76882;1289;4011055;-65
2024/02/04 01:11:34;;;;;;;6.30;4.50;;;;;;;-128.00;-1.00;-1.00;76822;1289;4011601;-65
2024/02/04 01:14:03;;;;;;;6.50;4.60;;;;;;;-128.00;-1.00;-1.00;76383;1297;4017931;-67
2024/02/04 01:16:30;;;;;;;6.80;5.10;;;;;;;-128.00;-1.00;-1.00;76716;1290;4011368;-70
2024/02/04 01:18:57;;;;;;;7.60;4.10;;;;;;;-128.00;-1.00;-1.00;76662;1292;4012081;-68
2024/02/04 01:21:27;;;;;;;5.20;4.00;;;;;;;-128.00;-1.00;-1.00;76032;1293;4011289;-67
2024/02/04 01:23:53;;;;;;;7.90;4.60;;;;;;;-128.00;-1.00;-1.00;76806;1289;4014263;-66
2024/02/04 01:26:20;;;;;;;6.20;3.90;;;;;;;-128.00;-1.00;-1.00;76726;1291;4012227;-70
2024/02/04 01:28:49;;;;;;;7.50;4.90;;;;;;;-128.00;-1.00;-1.00;76250;1290;4018029;-71
2024/02/04 01:31:15;;;;;;;5.80;3.40;;;;;;;-128.00;-1.00;-1.00;77094;1288;4011019;-68
2024/02/04 01:33:42;;;;;;;4.00;3.30;;;;;;;-128.00;-1.00;-1.00;76813;1288;4010248;-72
2024/02/04 01:36:11;;;;;;;7.20;4.50;;;;;;;-128.00;-1.00;-1.00;76230;1290;4012659;-70
2024/02/04 01:38:37;;;;;;;6.20;4.10;;;;;;;-128.00;-1.00;-1.00;76860;1295;4010884;-65
2024/02/04 01:41:04;;;;;;;6.50;4.50;;;;;;;-128.00;-1.00;-1.00;76684;1295;4011647;-68
2024/02/04 01:43:33;;;;;;;6.00;3.90;;;;;;;-128.00;-1.00;-1.00;76262;1291;4012859;-66
2024/02/04 01:45:59;;;;;;;6.50;4.10;;;;;;;-128.00;-1.00;-1.00;76725;1291;4011916;-71
2024/02/04 01:48:26;;;;;;;6.20;3.50;;;;;;;-128.00;-1.00;-1.00;76620;1296;4012095;-73
2024/02/04 01:50:55;;;;;;;5.60;3.70;;;;;;;-128.00;-1.00;-1.00;76207;1292;4012784;-69
2024/02/04 01:53:22;;;;;;;5.20;3.50;;;;;;;-128.00;-1.00;-1.00;76970;1289;4011314;-72
2024/02/04 01:55:49;;;;;;;6.70;4.40;;;;;;;-128.00;-1.00;-1.00;76793;1291;4011560;-72
2024/02/04 01:58:18;;;;;;;7.80;4.20;;;;;;;-128.00;-1.00;-1.00;76125;1294;4012258;-65
2024/02/04 02:00:45;;;;;;;6.70;3.90;;;;;;;-128.00;-1.00;-1.00;76703;1294;4013239;-65
2024/02/04 02:03:12;;;;;;;6.90;5.10;;;;;;;-128.00;-1.00;-1.00;76724;1289;4011673;-70
2024/02/04 02:05:41;;;;;;;8.00;4.00;;;;;;;-128.00;-1.00;-1.00;76278;1292;4020327;-72
2024/02/04 02:08:08;;;;;;;6.10;3.80;;;;;;;-128.00;-1.00;-1.00;76946;1289;4012447;-70
2024/02/04 02:10:35;;;;;;;5.80;4.10;;;;;;;-128.00;-1.00;-1.00;76736;1289;4011389;-69
2024/02/04 02:13:14;;;;;;;5.60;3.70;;;;;;;-128.00;-1.00;-1.00;76099;1291;4012090;-70
2024/02/04 02:15:49;;;;;;;6.50;4.20;;;;;;;-128.00;-1.00;-1.00;76310;1292;4018479;-68
2024/02/04 02:18:16;;;;;;;8.60;4.50;;;;;;;-128.00;-1.00;-1.00;77000;1291;4011180;-68
2024/02/04 02:20:55;;;;;;;5.50;3.60;;;;;;;-128.00;-1.00;-1.00;76143;1290;4021240;-74
2024/02/04 02:23:30;;;;;;;6.90;4.10;;;;;;;-128.00;-1.00;-1.00;76072;1291;4021105;-74
2024/02/04 02:25:59;;;;;;;5.20;3.40;;;;;;;-128.00;-1.00;-1.00;76275;1291;4021336;-70
2024/02/04 02:28:27;;;;;;;3.80;2.60;;;;;;;-128.00;-1.00;-1.00;76523;1292;4012182;-72
2024/02/04 02:30:54;;;;;;;5.30;3.30;;;;;;;-128.00;-1.00;-1.00;76958;1295;4012137;-69
2024/02/04 02:33:22;;;;;;;6.60;4.80;;;;;;;-128.00;-1.00;-1.00;76202;1289;4012489;-70
2024/02/04 02:35:51;;;;;;;3.50;2.40;;;;;;;-128.00;-1.00;-1.00;76881;1291;4010288;-68
2024/02/04 02:38:31;;;;;;;5.20;3.60;;;;;;;-128.00;-1.00;-1.00;76723;1289;4010922;-71
2024/02/04 02:41:03;;;;;;;4.80;3.40;;;;;;;-128.00;-1.00;-1.00;76183;1291;4021047;-67
2024/02/04 02:43:30;;;;;;;4.70;3.20;;;;;;;-128.00;-1.00;-1.00;76763;1292;4011555;-68
2024/02/04 02:45:59;;;;;;;5.40;4.00;;;;;;;-128.00;-1.00;-1.00;76101;1292;4012428;-66
2024/02/04 02:48:26;;;;;;;5.40;3.90;;;;;;;-128.00;-1.00;-1.00;76676;1294;4012016;-68
2024/02/04 02:50:53;;;;;;;6.80;3.70;;;;;;;-128.00;-1.00;-1.00;76595;1291;4012610;-69
2024/02/04 02:53:22;;;;;;;4.30;2.90;;;;;;;-128.00;-1.00;-1.00;76130;1291;4017811;-66
2024/02/04 02:55:49;;;;;;;4.40;2.40;;;;;;;-128.00;-1.00;-1.00;76594;1294;4011559;-67
2024/02/04 02:58:15;;;;;;;4.50;3.50;;;;;;;-128.00;-1.00;-1.00;77006;1296;4011000;-69
2024/02/04 03:02:04;;;;;;;4.40;3.30;;;;;;;5.34;87.56;98098.54;81048;1304;3012813;-68
2024/02/04 03:04:31;;;;;;;5.60;3.90;;;;;;;4.89;88.73;98093.62;79339;1302;3015837;-71
2024/02/04 03:06:58;;;;;;;5.90;3.90;;;;;;;4.62;90.16;98100.23;79115;1302;3011906;-74
2024/02/04 03:09:26;;;;;;;5.40;4.00;;;;;;;4.36;91.91;98098.80;77833;1308;3050846;-69
2024/02/04 03:11:52;;;;;;;5.40;3.70;;;;;;;4.77;91.71;98091.02;78874;1302;3013001;-65
2024/02/04 03:14:20;;;;;;;5.20;4.00;;;;;;;5.18;89.49;98096.07;79015;1307;3011601;-66
2024/02/04 03:16:48;;;;;;;8.10;4.70;;;;;;;5.06;89.28;98101.66;78438;1304;3049400;-67
2024/02/04 03:19:14;;;;;;;4.90;3.70;;;;;;;4.73;90.00;98102.17;79750;1301;3013280;-68
2024/02/04 03:21:42;;;;;;;8.30;4.70;;;;;;;4.26;92.67;98104.70;79373;1301;3012939;-66
2024/02/04 03:24:10;;;;;;;6.40;4.00;;;;;;;4.39;92.63;98104.15;78158;1301;3026901;-69
2024/02/04 03:26:37;;;;;;;5.40;3.60;;;;;;;5.02;91.81;98106.56;79435;1296;3012848;-69
2024/02/04 03:29:04;;;;;;;9.00;4.60;;;;;;;5.15;89.30;98106.63;79318;1301;3013142;-73
2024/02/04 03:31:33;;;;;;;7.70;4.70;;;;;;;5.06;89.68;98108.73;78270;1301;3049571;-70
2024/02/04 03:34:00;;;;;;;11.80;5.30;;;;;;;5.05;89.47;98108.84;79572;1299;3013597;-69
2024/02/04 03:36:27;;;;;;;8.40;5.00;;;;;;;4.71;90.12;98110.10;79322;1298;3011660;-65
2024/02/04 03:38:55;;;;;;;8.30;4.70;;;;;;;4.53;91.42;98103.70;78084;1301;3052878;-68
2024/02/04 03:41:22;;;;;;;7.00;4.20;;;;;;;4.47;92.53;98106.44;79321;1301;3013582;-71
2024/02/04 03:43:49;;;;;;;5.30;3.60;;;;;;;5.08;90.52;98108.48;79285;1298;3011569;-72
2024/02/04 03:46:17;;;;;;;6.60;4.50;;;;;;;5.18;89.51;98116.53;78019;1295;3026257;-65
2024/02/04 03:48:44;;;;;;;4.90;3.20;;;;;;;4.93;89.74;98098.64;79317;1298;3021096;-68
2024/02/04 03:51:18;;;;;;;7.40;4.50;;;;;;;4.95;89.54;98103.83;79243;1298;3011612;-67
2024/02/04 03:53:47;;;;;;;5.80;3.70;;;;;;;4.63;90.57;98105.73;78497;1299;3052959;-66
2024/02/04 03:56:14;;;;;;;4.60;3.10;;;;;;;4.54;91.79;98096.38;79254;1297;3014608;-70
2024/02/04 03:58:41;;;;;;;5.80;3.10;;;;;;;5.12;90.59;98101.77;79695;1296;3013192;-69
2024/02/04 04:01:12;;;;;;;7.50;4.00;;;;;;;5.42;88.58;98098.08;78272;1298;3049506;-66
2024/02/04 04:03:40;;;;;;;6.10;4.30;;;;;;;5.13;89.10;98100.89;79337;1301;3013127;-68
2024/02/04 04:06:09;;;;;;;5.50;3.80;;;;;;;5.04;89.17;98103.16;78111;1300;3050011;-67
2024/02/04 04:08:37;;;;;;;5.80;4.20;;;;;;;4.69;89.98;98106.27;79514;1294;3013274;-68
2024/02/04 04:11:04;;;;;;;5.00;3.40;;;;;;;4.49;91.19;98105.45;79682;1295;3013548;-68
2024/02/04 04:13:34;;;;;;;4.70;2.90;;;;;;;4.70;91.18;98112.75;78179;1295;3050689;-70
2024/02/04 04:16:02;;;;;;;5.40;3.60;;;;;;;5.27;89.39;98108.39;79569;1295;3013304;-71
2024/02/04 04:18:30;;;;;;;4.50;3.60;;;;;;;5.05;89.32;98101.55;78347;1299;3026551;-70
2024/02/04 04:20:57;;;;;;;7.20;3.70;;;;;;;4.88;90.09;98103.41;79366;1301;3013698;-68
2024/02/04 04:23:23;;;;;;;4.90;4.00;;;;;;;4.79;90.07;98103.21;79558;1298;3011907;-70
2024/02/04 04:25:51;;;;;;;4.10;3.10;;;;;;;4.73;90.46;98108.45;78413;1298;3028996;-73
2024/02/04 04:28:18;;;;;;;5.90;3.50;;;;;;;4.64;90.46;98106.52;79734;1299;3013443;-67
2024/02/04 04:30:45;;;;;;;5.30;2.90;;;;;;;5.16;90.62;98111.83;79686;1296;3011983;-71
2024/02/04 04:33:13;;;;;;;7.30;3.80;;;;;;;5.53;88.18;98118.11;78138;1302;3026087;-68
2024/02/04 04:35:40;;;;;;;4.20;3.40;;;;;;;5.42;87.92;98115.83;79755;1295;3013699;-66
2024/02/04 04:38:07;;;;;;;4.90;3.20;;;;;;;5.10;88.48;98119.45;79534;1299;3011775;-67
2024/02/04 04:40:35;;;;;;;6.30;3.40;;;;;;;4.84;89.37;98117.38;78234;1298;3052249;-70
2024/02/04 04:43:02;;;;;;;5.00;3.00;;;;;;;4.70;89.96;98120.42;79631;1295;3012860;-69
2024/02/04 04:45:29;;;;;;;4.20;2.70;;;;;;;5.05;90.17;98119.88;79536;1300;3011576;-69
2024/02/04 04:47:57;;;;;;;6.10;3.10;;;;;;;5.54;87.82;98120.66;78133;1298;3028333;-68
2024/02/04 04:50:23;;;;;;;5.70;2.80;;;;;;;5.69;86.59;98113.29;79437;1296;3018868;-67
2024/02/04 04:52:50;;;;;;;6.00;3.60;;;;;;;5.40;86.83;98129.66;79438;1301;3011846;-70
2024/02/04 04:55:19;;;;;;;4.60;2.60;;;;;;;5.22;87.34;98123.10;78251;1300;3026687;-68
2024/02/04 04:57:46;;;;;;;6.30;3.60;;;;;;;4.92;88.08;98116.91;79703;1295;3015557;-66
2024/02/04 05:00:13;;;;;;;6.40;3.50;;;;;;;4.75;88.90;98118.40;79688;1298;3011641;-71
2024/02/04 05:02:43;;;;;;;3.00;2.10;;;;;;;4.77;89.06;98119.67;78413;1295;3049565;-71
2024/02/04 05:05:11;;;;;;;5.80;3.00;;;;;;;5.19;88.45;98112.65;79545;1296;3011512;-69
2024/02/04 05:07:40;;;;;;;6.50;3.50;;;;;;;5.32;87.32;98121.77;78989;1299;3013303;-73
2024/02/04 05:10:08;;;;;;;5.20;3.30;;;;;;;5.36;86.96;98121.20;79315;1300;3013117;-67
2024/02/04 05:12:36;;;;;;;4.70;2.80;;;;;;;5.34;86.50;98132.63;79361;1300;3011793;-69
2024/02/04 05:15:07;;;;;;;7.00;3.30;;;;;;;5.14;86.55;98133.13;78425;1296;3049780;-69
2024/02/04 05:17:35;;;;;;;5.30;3.40;;;;;;;4.94;87.26;98136.52;79641;1294;3012826;-66
2024/02/04 05:20:04;;;;;;;7.20;3.70;;;;;;;4.71;88.64;98133.92;78244;1298;3049850;-71
2024/02/04 05:22:31;;;;;;;3.10;1.90;;;;;;;5.01;88.74;98141.52;79688;1295;3011796;-70
2024/02/04 05:24:58;;;;;;;5.00;2.90;;;;;;;5.67;85.85;98141.02;79591;1295;3011651;-73
2024/02/04 05:27:26;;;;;;;6.70;3.00;;;;;;;5.63;85.38;98136.43;78338;1301;3052370;-68
2024/02/04 05:29:52;;;;;;;7.30;3.70;;;;;;;5.35;86.20;98132.21;79866;1300;3013353;-66
2024/02/04 05:32:19;;;;;;;7.50;4.20;;;;;;;5.34;86.55;98136.63;79519;1301;3011394;-69
2024/02/04 05:34:47;;;;;;;5.20;2.80;;;;;;;4.97;87.59;98142.27;78528;1301;3026249;-67
2024/02/04 05:37:14;;;;;;;6.20;3.00;;;;;;;4.87;88.59;98145.45;79521;1296;3012652;-71
2024/02/04 05:39:40;;;;;;;5.70;3.30;;;;;;;5.05;89.59;98140.23;79619;1295;3012843;-68
2024/02/04 05:42:08;;;;;;;3.70;2.20;;;;;;;5.47;88.38;98147.95;78249;1295;3027414;-72
2024/02/04 05:44:35;;;;;;;4.80;2.90;;;;;;;5.58;87.51;98146.94;79744;1295;3013544;-68
2024/02/04 05:47:02;;;;;;;6.20;3.70;;;;;;;5.26;88.32;98141.95;79809;1295;3011448;-71
2024/02/04 05:49:30;;;;;;;5.20;3.50;;;;;;;5.07;89.35;98149.14;78600;1300;3027871;-71
2024/02/04 05:51:56;;;;;;;4.60;2.80;;;;;;;4.89;90.20;98151.23;79642;1295;3013105;-75
2024/02/04 05:54:23;;;;;;;5.30;3.40;;;;;;;4.96;90.05;98157.93;79691;1296;3011493;-67
2024/02/04 05:56:51;;;;;;;4.70;3.40;;;;;;;5.38;90.33;98147.13;78600;1295;3026877;-71
2024/02/04 05:59:17;;;;;;;5.50;3.40;;;;;;;5.54;88.47;98149.47;79844;1296;3012883;-66
2024/02/04 06:01:44;;;;;;;5.30;3.70;;;;;;;5.57;88.11;98153.48;79693;1295;3011794;-70
2024/02/04 06:04:12;;;;;;;5.30;3.40;;;;;;;5.51;87.98;98163.02;78419;1296;3025933;-69
2024/02/04 06:06:39;;;;;;;8.60;4.70;;;;;;;5.33;87.65;98158.00;79523;1301;3012869;-69
2024/02/04 06:09:06;;;;;;;6.00;4.00;;;;;;;4.95;89.84;98152.08;79539;1298;3013089;-72
2024/02/04 06:11:34;;;;;;;5.90;3.80;;;;;;;4.99;90.11;98151.17;78375;1301;3029603;-69
2024/02/04 06:14:01;;;;;;;5.50;3.70;;;;;;;5.56;89.32;98152.11;79628;1296;3013639;-71
2024/02/04 06:16:27;;;;;;;9.20;3.90;;;;;;;5.87;86.75;98143.93;79284;1295;3013482;-69
2024/02/04 06:18:57;;;;;;;7.10;3.90;;;;;;;5.60;87.22;98156.92;78397;1298;3029797;-66
2024/02/04 06:21:24;;;;;;;5.40;3.00;;;;;;;5.38;87.97;98141.92;79603;1295;3013452;-67
2024/02/04 06:23:51;;;;;;;7.10;4.90;;;;;;;5.34;87.23;98147.38;79702;1298;3011600;-72
2024/02/04 06:26:19;;;;;;;13.00;5.60;;;;;;;5.14;88.19;98138.70;78422;1296;3049707;-70
2024/02/04 06:28:48;;;;;;;6.10;3.90;;;;;;;4.93;89.12;98137.64;79782;1295;3013225;-69
2024/02/04 06:31:18;;;;;;;10.20;5.10;;;;;;;5.44;88.88;98138.77;78997;1298;3011604;-65
2024/02/04 06:33:45;;;;;;;7.70;5.00;;;;;;;5.98;85.87;98134.24;79646;1295;3014350;-70
2024/02/04 06:36:11;;;;;;;9.40;5.80;;;;;;;5.84;85.73;98132.85;79517;1295;3013007;-70
2024/02/04 06:38:40;;;;;;;10.20;5.40;;;;;;;5.67;85.75;98144.71;78377;1295;3048635;-71
2024/02/04 06:41:07;;;;;;;9.20;5.00;;;;;;;5.45;85.82;98138.00;79565;1299;3011605;-69
2024/02/04 06:43:33;;;;;;;11.60;6.40;;;;;;;5.09;87.52;98130.80;79821;1295;3011521;-72
2024/02/04 06:46:01;;;;;;;8.80;5.60;;;;;;;5.11;87.65;98137.09;78285;1295;3051626;-70
2024/02/04 06:48:28;;;;;;;9.20;5.10;;;;;;;5.14;87.51;98136.08;79575;1295;3013252;-73
2024/02/04 06:50:55;;;;;;;8.90;5.50;;;;;;;5.86;86.77;98139.88;79662;1299;3011812;-72
2024/02/04 06:53:23;;;;;;;8.60;5.80;;;;;;;6.15;84.02;98133.42;78297;1295;3026407;-71
2024/02/04 06:55:49;;;;;;;11.60;7.10;;;;;;;6.12;83.83;98135.48;79411;1295;3013357;-73
2024/02/04 06:58:16;;;;;;;12.20;6.80;;;;;;;6.04;83.68;98139.45;79457;1295;3012161;-69
2024/02/04 07:00:44;;;;;;;8.80;5.10;;;;;;;5.68;84.43;98139.58;78441;1296;3026800;-68
2024/02/04 07:03:10;;;;;;;9.20;5.20;;;;;;;5.54;85.33;98143.06;79612;1301;3014120;-72
2024/02/04 07:05:37;;;;;;;12.50;5.30;;;;;;;5.35;86.08;98142.81;79616;1295;3011535;-74
2024/02/04 07:08:05;;;;;;;8.20;5.10;;;;;;;5.33;86.17;98146.93;78330;1296;3026158;-74
2024/02/04 07:10:32;;;;;;;8.80;4.00;;;;;;;5.45;86.86;98151.92;79569;1300;3013533;-69
2024/02/04 07:12:59;;;;;;;6.10;3.50;;;;;;;5.94;85.07;98143.02;79596;1298;3011821;-69
2024/02/04 07:15:27;;;;;;;4.00;2.50;;;;;;;6.26;83.96;98156.14;78580;1295;3050381;-68
2024/02/04 07:17:53;;;;;;;7.70;3.70;;;;;;;6.03;83.63;98145.11;79736;1295;3013059;-70
2024/02/04 07:20:20;;;;;;;5.10;3.00;;;;;;;5.81;84.17;98146.60;79320;1295;3011658;-71
2024/02/04 07:22:48;;;;;;;5.00;2.90;;;;;;;5.84;84.02;98148.32;78481;1300;3028691;-71
2024/02/04 07:25:15;;;;;;;4.60;3.20;;;;;;;5.79;83.75;98151.91;79644;1300;3013557;-67
2024/02/04 07:27:42;;;;;;;7.50;4.00;;;;;;;5.57;84.61;98146.15;79343;1301;3011547;-67
2024/02/04 07:30:11;;;;;;;5.80;2.50;;;;;;;5.47;85.42;98145.20;78285;1301;3053273;-67
2024/02/04 07:32:38;;;;;;;7.30;3.50;;;;;;;5.90;85.10;98150.36;79686;1295;3013784;-69
2024/02/04 07:35:05;;;;;;;7.80;4.10;;;;;;;6.56;82.97;98151.80;79640;1295;3011655;-67
2024/02/04 07:37:36;;;;;;;6.80;3.70;;;;;;;6.39;82.04;98155.00;78374;1299;3049331;-68
2024/02/04 07:40:05;;;;;;;6.50;3.50;;;;;;;6.26;82.24;98158.22;79698;1295;3012080;-66
2024/02/04 07:42:33;;;;;;;6.20;3.20;;;;;;;6.15;82.08;98163.15;78372;1300;3051908;-72
2024/02/04 07:45:01;;;;;;;4.30;3.10;;;;;;;5.97;82.82;98165.77;79653;1300;3012949;-70
2024/02/04 07:47:27;;;;;;;6.80;2.80;;;;;;;5.63;84.24;98165.27;79697;1295;3013338;-69
2024/02/04 07:49:56;;;;;;;5.00;3.30;;;;;;;5.38;85.49;98167.64;78626;1295;3050735;-66
2024/02/04 07:52:22;;;;;;;5.70;3.20;;;;;;;5.54;84.99;98172.04;79782;1295;3013335;-73
2024/02/04 07:54:49;;;;;;;6.80;3.20;;;;;;;5.91;84.93;98166.30;79585;1299;3011773;-66
2024/02/04 07:57:17;;;;;;;6.10;4.00;;;;;;;6.36;82.92;98158.83;78354;1301;3028419;-71
2024/02/04 07:59:44;;;;;;;6.80;4.10;;;;;;;6.18;82.91;98166.23;79645;1298;3012933;-69
2024/02/04 08:02:10;;;;;;;6.70;3.20;;;;;;;6.19;82.80;98175.22;79644;1295;3011940;-70
2024/02/04 08:04:41;;;;;;;7.10;2.70;;;;;;;5.89;83.14;98175.68;78424;1295;3027563;-68
2024/02/04 08:07:08;;;;;;;6.40;3.30;;;;;;;5.75;83.98;98175.97;79630;1295;3012206;-67
2024/02/04 08:09:37;;;;;;;9.00;3.00;;;;;;;5.64;84.54;98170.77;78976;1300;3013531;-69
2024/02/04 08:12:04;;;;;;;8.20;3.30;;;;;;;5.61;84.50;98178.94;79659;1299;3013449;-67
2024/02/04 08:14:31;;;;;;;5.10;2.50;;;;;;;5.56;85.16;98184.27;79740;1294;3012751;-69
2024/02/04 08:16:58;;;;;;;8.10;3.00;;;;;;;6.07;84.11;98171.96;78356;1295;3026627;-70
2024/02/04 08:19:25;;;;;;;5.80;3.10;;;;;;;6.37;82.24;98177.34;79404;1295;3012902;-67
2024/02/04 08:21:53;;;;;;;8.20;4.40;;;;;;;6.38;81.57;98182.16;79352;1295;3012996;-67
2024/02/04 08:24:20;;;;;;;10.20;6.00;;;;;;;5.87;82.59;98186.92;78349;1300;3050709;-68
2024/02/04 08:26:47;;;;;;;12.60;6.70;;;;;;;5.64;84.05;98186.92;79708;1295;3018530;-70
2024/02/04 08:29:14;;;;;;;14.00;6.80;;;;;;;5.68;83.82;98191.17;79627;1300;3012118;-67
2024/02/04 08:31:42;;;;;;;11.20;6.70;;;;;;;5.75;83.72;98192.14;78440;1295;3025478;-63
2024/02/04 08:34:09;;;;;;;12.40;7.40;;;;;;;5.55;83.97;98188.13;79505;1295;3013801;-66
2024/02/04 08:36:35;;;;;;;9.20;5.10;;;;;;;5.65;84.19;98190.14;79490;1295;3011578;-69
2024/02/04 08:39:04;;;;;;;10.30;5.60;;;;;;;6.18;82.52;98185.33;78395;1295;3028559;-71
2024/02/04 08:41:30;;;;;;;12.80;5.90;;;;;;;6.64;80.11;98189.05;79622;1295;3012811;-69
2024/02/04 08:43:57;;;;;;;12.10;6.20;;;;;;;6.90;79.40;98189.64;79407;1300;3011665;-69
2024/02/04 08:46:25;;;;;;;12.30;6.10;;;;;;;6.86;78.06;98189.86;78527;1294;3051236;-67
2024/02/04 08:48:52;;;;;;;13.30;4.50;;;;;;;6.60;77.76;98191.04;79334;1295;3014430;-68
2024/02/04 08:51:19;;;;;;;11.90;6.10;;;;;;;6.45;78.08;98186.46;79752;1294;3011549;-71
2024/02/04 08:53:47;;;;;;;15.90;7.40;;;;;;;6.57;78.13;98188.08;78417;1295;3051408;-70
2024/02/04 08:56:14;;;;;;;11.10;6.60;;;;;;;6.37;78.74;98178.04;79749;1298;3013485;-69
2024/02/04 08:58:40;;;;;;;14.70;6.40;;;;;;;6.33;78.77;98182.52;79708;1298;3013256;-70
2024/02/04 09:01:08;;;;;;;15.30;6.20;;;;;;;6.29;79.43;98176.11;78574;1295;3026562;-68
2024/02/04 09:03:35;;;;;;;11.20;6.40;;;;;;;6.35;79.07;98167.45;79931;1295;3013718;-72
2024/02/04 09:06:02;;;;;;;12.00;5.50;;;;;;;6.18;79.57;98165.39;79722;1295;3013547;-73
2024/02/04 09:08:30;;;;;;;14.80;6.20;;;;;;;6.20;79.70;98156.73;78440;1298;3025769;-72
2024/02/04 09:10:57;;;;;;;17.20;6.70;;;;;;;6.27;79.38;98150.52;79675;1298;3013174;-73
2024/02/04 09:13:24;;;;;;;12.10;5.10;;;;;;;6.25;79.30;98151.51;79576;1294;3013429;-65
2024/02/04 09:15:54;;;;;;;10.30;5.30;;;;;;;6.59;79.12;98145.88;78456;1298;3050509;-67
2024/02/04 09:18:20;;;;;;;11.00;5.10;;;;;;;7.27;77.30;98135.77;79672;1295;3013326;-67
2024/02/04 09:20:47;;;;;;;10.50;4.80;;;;;;;7.43;74.95;98141.12;79620;1296;3011509;-68
2024/02/04 09:23:15;;;;;;;11.50;5.70;;;;;;;7.27;74.44;98138.02;78487;1298;3050481;-72
2024/02/04 09:25:42;;;;;;;12.20;4.50;;;;;;;7.19;75.03;98141.04;79654;1296;3013358;-69
2024/02/04 09:28:09;;;;;;;12.60;5.00;;;;;;;7.01;74.60;98140.48;79511;1298;3011347;-68
2024/02/04 09:30:36;;;;;;;9.10;4.60;;;;;;;7.15;73.58;98137.33;78355;1301;3025824;-69
2024/02/04 09:33:03;;;;;;;13.80;5.20;;;;;;;7.04;72.56;98134.03;79494;1295;3018635;-69
2024/02/04 09:35:30;;;;;;;16.50;5.00;;;;;;;6.95;72.37;98144.73;79544;1295;3011992;-68
2024/02/04 09:37:58;;;;;;;16.10;5.60;;;;;;;6.93;72.15;98136.33;78373;1301;3027319;-72
2024/02/04 09:40:24;;;;;;;17.80;6.40;;;;;;;7.00;72.61;98129.06;79520;1301;3018359;-72
2024/02/04 09:42:52;;;;;;;12.30;5.50;;;;;;;6.95;72.12;98133.11;79501;1300;3011651;-71
2024/02/04 09:45:20;;;;;;;17.80;6.90;;;;;;;6.92;72.38;98131.37;78215;1303;3051096;-70
2024/02/04 09:47:46;;;;;;;19.20;7.00;;;;;;;6.89;72.27;98138.87;79354;1297;3013352;-67
2024/02/04 09:50:13;;;;;;;14.30;6.30;;;;;;;6.89;72.38;98124.79;80468;1295;3012116;-69
2024/02/04 09:52:41;;;;;;;12.60;6.60;;;;;;;6.91;71.94;98127.09;78109;1300;3026875;-72
2024/02/04 09:55:08;;;;;;;16.50;7.20;;;;;;;6.85;71.36;98130.44;79991;1298;3013208;-69
2024/02/04 09:57:34;;;;;;;13.80;5.00;;;;;;;6.91;70.99;98126.19;79677;1301;3012866;-67
2024/02/04 10:00:04;;;;;;;9.80;4.30;;;;;;;6.90;70.09;98131.88;78577;1295;3027071;-69
2024/02/04 10:02:41;;;;;;;11.40;4.30;;;;;;;6.92;69.83;98129.59;78289;1300;3058257;-74
2024/02/04 10:05:10;;;;;;;14.80;4.70;;;;;;;6.95;69.74;98121.21;79681;1295;3012780;-67
2024/02/04 10:07:38;;;;;;;10.10;4.00;;;;;;;6.92;69.75;98128.54;78097;1296;3026369;-66
2024/02/04 10:10:06;;;;;;;8.60;3.10;;;;;;;6.93;69.85;98122.23;79543;1298;3014103;-72
2024/02/04 10:12:35;;;;;;;9.20;3.20;;;;;;;6.90;70.03;98124.14;79698;1301;3013261;-72
2024/02/04 10:15:04;;;;;;;11.30;3.40;;;;;;;6.92;70.33;98137.64;78371;1300;3069839;-70
2024/02/04 10:17:32;;;;;;;10.00;3.10;;;;;;;6.98;70.10;98122.27;79683;1295;3013090;-71
2024/02/04 10:19:58;;;;;;;14.30;3.00;;;;;;;7.09;70.03;98120.28;79399;1295;3012857;-70
2024/02/04 10:22:26;;;;;;;9.70;3.70;;;;;;;7.06;69.85;98122.77;78127;1299;3053340;-68
2024/02/04 10:24:53;;;;;;;13.20;3.10;;;;;;;6.88;70.07;98137.86;79686;1299;3013467;-68
2024/02/04 10:27:20;;;;;;;9.10;3.40;;;;;;;6.94;70.58;98127.08;79555;1301;3011770;-68
2024/02/04 10:29:48;;;;;;;11.90;4.70;;;;;;;7.00;70.10;98119.86;78446;1295;3026232;-69
2024/02/04 10:32:14;;;;;;;19.70;4.70;;;;;;;6.99;69.64;98120.29;79594;1295;3013379;-65
2024/02/04 10:34:42;;;;;;;11.60;4.30;;;;;;;7.11;69.39;98121.23;79405;1300;3011949;-71
2024/02/04 10:37:10;;;;;;;14.00;4.90;;;;;;;7.16;69.47;98121.73;78399;1295;3053412;-72
2024/02/04 10:39:36;;;;;;;14.50;5.30;;;;;;;7.10;69.49;98121.81;79766;1298;3018519;-72
2024/02/04 10:42:03;;;;;;;16.70;6.00;;;;;;;7.20;69.59;98117.09;79478;1299;3013590;-68
2024/02/04 10:44:34;;;;;;;20.40;5.40;;;;;;;7.20;69.42;98119.42;78218;1295;3026681;-75
2024/02/04 10:47:00;;;;;;;13.00;5.10;;;;;;;7.01;69.56;98109.15;79691;1295;3013281;-69
2024/02/04 10:49:27;;;;;;;18.10;5.50;;;;;;;6.98;69.88;98111.98;79377;1295;3011664;-71
2024/02/04 10:51:55;;;;;;;17.40;5.00;;;;;;;7.03;69.87;98108.51;78270;1295;3054329;-69
2024/02/04 10:54:23;;;;;;;15.00;5.20;;;;;;;7.16;69.80;98098.04;79556;1301;3013049;-69
2024/02/04 10:56:54;;;;;;;14.40;4.30;;;;;;;7.05;69.15;98110.79;79592;1299;3011668;-71
2024/02/04 10:59:23;;;;;;;13.30;4.10;;;;;;;7.17;69.30;98106.70;78203;1295;3068237;-72
2024/02/04 11:01:49;;;;;;;10.50;3.50;;;;;;;7.16;68.60;98107.45;79496;1295;3012690;-70
2024/02/04 11:04:17;;;;;;;12.50;3.80;;;;;;;7.13;68.46;98100.67;80075;1295;3011528;-69
2024/02/04 11:06:45;;;;;;;10.40;3.60;;;;;;;7.17;68.48;98088.90;78358;1301;3052720;-69
2024/02/04 11:09:12;;;;;;;10.50;4.20;;;;;;;7.32;68.64;98079.71;79562;1297;3013608;-66
2024/02/04 11:11:38;;;;;;;11.70;3.90;;;;;;;7.58;68.21;98072.16;79684;1298;3011905;-71
2024/02/04 11:14:12;;;;;;;10.00;5.00;;;;;;;7.66;68.21;98071.27;78173;1295;3027458;-69
2024/02/04 11:16:44;;;;;;;10.30;4.80;;;;;;;7.81;68.48;98071.22;79652;1300;3011785;-69
2024/02/04 11:19:22;;;;;;;12.50;4.70;;;;;;;7.88;67.97;98081.50;78337;1295;3057657;-68
2024/02/04 11:22:12;;;;;;;13.80;5.30;;;;;;;7.76;68.62;98066.16;78202;1295;3050118;-69
2024/02/04 11:25:31;;;;;;;14.50;4.90;;;;;;;7.61;69.39;98073.17;78331;1295;3052410;-69
2024/02/04 11:27:59;;;;;;;7.90;3.00;;;;;;;7.68;70.01;98060.82;78020;1306;3050595;-69